Delingha, China
Current Conditions -  °F | °C
As of 3:00 AM on Sunday 21 Dec 2014 (Local Time) from ZLLL Reporting Station
Clear Clear  
Wind Chill: -10°   Ceiling: Unl
Heat Index:   Visibility: 6mi
Dew Point: -6°   Wind: 4mph
Humidity: 78%   Direction: 330°NNW
Pressure: 30.5"   Gusts: NA
Location:  37.37°N, 97.37°E
Report Text: ZLLL 201900Z 33002MPS CAVOK M18/M21 Q1033 NOSIG
Loading
Personal Weather Stations






























Interactive Weather Map New forecast layout! Learn more

10-Day Weather Forecast

Advertisements
Track Severe Weather on mobile